Hanover, Indiana
Current Conditions -  °F | °C
As of 11:53 PM on Saturday 22 Nov 2014 (Local Time) from KLOU Reporting Station
Clear Clear  
Wind Chill: 51°   Ceiling: Unl
Heat Index: 51°   Visibility: 10mi
Dew Point: 33°   Wind: 3mph
Humidity: 50%   Direction: 140°SE
Pressure: 30.06"   Gusts: NA
Location:  38.71°N, 85.47°W
Report Text: KLOU 230453Z 14003KT 10SM CLR 11/01 A3006 RMK AO2 SLP179 T01060006 401780017
Loading
Personal Weather Stations






























Interactive Weather Map New forecast layout! Learn more

10-Day Weather Forecast

Advertisements
Track Severe Weather on mobile